createdAt,value
2018-04-12T00:01:02.184Z,49.67
2018-04-12T00:03:29.348Z,45.50
2018-04-12T00:05:56.240Z,46.10
2018-04-12T00:08:23.338Z,49.60
2018-04-12T00:10:50.237Z,45.17
2018-04-12T00:13:17.104Z,42.53
2018-04-12T00:15:44.860Z,43.20
2018-04-12T00:18:12.493Z,37.97
2018-04-12T00:20:39.409Z,36.77
2018-04-12T00:23:06.345Z,34.10
2018-04-12T00:25:33.279Z,32.17
2018-04-12T00:28:00.933Z,31.17
2018-04-12T00:30:28.734Z,30.10
2018-04-12T00:32:55.606Z,28.40
2018-04-12T00:35:22.479Z,32.63
2018-04-12T00:37:49.387Z,30.60
2018-04-12T00:40:16.273Z,29.53
2018-04-12T00:42:43.183Z,28.63
2018-04-12T00:45:10.097Z,33.17
2018-04-12T00:47:36.965Z,32.77
2018-04-12T00:50:03.865Z,34.17
2018-04-12T00:52:31.626Z,32.30
2018-04-12T00:54:59.253Z,32.40
2018-04-12T00:57:26.884Z,28.13
2018-04-12T00:59:54.095Z,28.80
2018-04-12T01:02:20.971Z,30.83
2018-04-12T01:04:47.838Z,30.95
2018-04-12T01:07:14.857Z,32.30
2018-04-12T01:09:41.784Z,33.00
2018-04-12T01:12:08.724Z,31.07
2018-04-12T01:14:35.736Z,29.70
2018-04-12T01:17:03.401Z,30.30
2018-04-12T01:19:30.270Z,30.83
2018-04-12T01:21:57.184Z,31.33
2018-04-12T01:24:24.048Z,29.17
2018-04-12T01:26:50.958Z,24.53
2018-04-12T01:29:17.965Z,28.33
2018-04-12T01:31:45.167Z,29.27
2018-04-12T01:34:12.091Z,23.77
2018-04-12T01:36:39.084Z,26.53
2018-04-12T01:39:06.311Z,30.33
2018-04-12T01:41:33.193Z,30.80
2018-04-12T01:44:00.363Z,35.03
2018-04-12T01:46:27.296Z,30.73
2018-04-12T01:48:54.178Z,34.43
2018-04-12T01:51:21.887Z,37.30
2018-04-12T01:53:48.804Z,32.30
2018-04-12T01:56:15.705Z,34.60
2018-04-12T01:58:42.770Z,31.90
2018-04-12T02:01:10.384Z,33.03
2018-04-12T02:03:37.268Z,35.37
2018-04-12T02:06:04.353Z,35.97
2018-04-12T02:08:31.288Z,31.93
2018-04-12T02:10:58.986Z,35.40
2018-04-12T02:13:25.993Z,33.07
2018-04-12T02:15:53.648Z,28.47
2018-04-12T02:18:20.516Z,30.47
2018-04-12T02:20:47.546Z,32.67
2018-04-12T02:23:15.218Z,31.43
2018-04-12T02:25:42.088Z,35.43
2018-04-12T02:28:09.100Z,26.33
2018-04-12T02:30:36.804Z,32.77
2018-04-12T02:33:03.708Z,34.93
2018-04-12T02:35:31.579Z,39.07
2018-04-12T02:37:59.228Z,37.13
2018-04-12T02:40:26.857Z,31.15
2018-04-12T02:42:54.003Z,34.83
2018-04-12T02:45:20.886Z,31.63
2018-04-12T02:47:47.747Z,34.57
2018-04-12T02:50:15.407Z,31.10
2018-04-12T02:52:43.047Z,31.17
2018-04-12T02:55:09.960Z,31.47
2018-04-12T02:57:37.059Z,35.97
2018-04-12T03:00:03.976Z,38.87
2018-04-12T03:02:30.891Z,32.63
2018-04-12T03:04:58.784Z,39.40
2018-04-12T03:07:25.708Z,30.77
2018-04-12T03:09:52.598Z,34.27
2018-04-12T03:12:19.674Z,33.77
2018-04-12T03:14:51.635Z,34.20
2018-04-12T03:17:18.556Z,32.40
2018-04-12T03:19:45.724Z,29.53
2018-04-12T03:22:12.600Z,36.63
2018-04-12T03:24:39.487Z,28.10
2018-04-12T03:27:06.488Z,34.73
2018-04-12T03:29:34.099Z,31.50
2018-04-12T03:32:00.997Z,31.48
2018-04-12T03:34:28.014Z,29.77
2018-04-12T03:36:55.751Z,33.67
2018-04-12T03:39:22.642Z,38.15
2018-04-12T03:41:50.299Z,39.45
2018-04-12T03:44:17.919Z,35.03
2018-04-12T03:46:44.809Z,32.35
2018-04-12T03:49:12.673Z,33.93
2018-04-12T03:51:39.488Z,36.17
2018-04-12T03:54:06.406Z,31.75
2018-04-12T03:56:33.343Z,34.13
2018-04-12T03:59:00.220Z,27.70
2018-04-12T04:01:27.111Z,34.00
2018-04-12T04:03:54.819Z,28.13
2018-04-12T04:06:21.692Z,30.30
2018-04-12T04:08:48.573Z,29.23
2018-04-12T04:11:15.590Z,31.23
2018-04-12T04:13:42.543Z,30.13
2018-04-12T04:16:28.596Z,33.67
2018-04-12T04:19:14.035Z,36.80
2018-04-12T04:21:41.077Z,35.07
2018-04-12T04:24:08.802Z,27.23
2018-04-12T04:26:36.463Z,31.30
2018-04-12T04:29:03.489Z,27.03
2018-04-12T04:31:30.354Z,29.83
2018-04-12T04:33:57.230Z,31.50
2018-04-12T04:36:24.264Z,28.10
2018-04-12T04:38:51.248Z,25.17
2018-04-12T04:41:18.196Z,32.53
2018-04-12T04:43:45.279Z,27.58
2018-04-12T04:46:12.513Z,29.00
2018-04-12T04:48:39.479Z,32.53
2018-04-12T04:51:06.552Z,26.57
2018-04-12T04:53:33.461Z,27.13
2018-04-12T04:56:00.331Z,30.08
2018-04-12T04:58:27.339Z,26.60
2018-04-12T05:00:54.325Z,33.33
2018-04-12T05:03:21.277Z,30.20
2018-04-12T05:05:48.249Z,31.55
2018-04-12T05:08:15.163Z,28.10
2018-04-12T05:10:42.088Z,34.67
2018-04-12T05:13:09.108Z,28.03
2018-04-12T05:15:36.776Z,33.30
2018-04-12T05:18:03.755Z,32.60
2018-04-12T05:20:30.857Z,39.70
2018-04-12T05:22:58.515Z,26.83
2018-04-12T05:25:26.141Z,34.70
2018-04-12T05:27:53.165Z,30.67
2018-04-12T05:30:20.165Z,32.83
2018-04-12T05:32:47.139Z,31.60
2018-04-12T05:35:14.082Z,36.77
2018-04-12T05:37:41.704Z,34.10
2018-04-12T05:40:08.614Z,34.70
2018-04-12T05:42:35.702Z,30.13
2018-04-12T05:45:02.672Z,33.80
2018-04-12T05:47:30.297Z,34.20
2018-04-12T05:49:57.389Z,31.27
2018-04-12T05:52:25.031Z,28.03
2018-04-12T05:54:51.901Z,38.17
2018-04-12T05:57:19.581Z,37.23
2018-04-12T05:59:46.464Z,30.63
2018-04-12T06:02:13.356Z,35.35
2018-04-12T06:04:41.264Z,31.60
2018-04-12T06:07:08.131Z,31.73
2018-04-12T06:09:35.013Z,32.10
2018-04-12T06:12:02.777Z,29.70
2018-04-12T06:14:30.445Z,38.13
2018-04-12T06:16:58.158Z,29.90
2018-04-12T06:19:25.176Z,31.50
2018-04-12T06:21:52.118Z,32.10
2018-04-12T06:24:19.001Z,28.57
2018-04-12T06:26:46.027Z,33.20
2018-04-12T06:29:12.926Z,33.13
2018-04-12T06:31:39.850Z,32.10
2018-04-12T06:34:06.784Z,34.23
2018-04-12T06:36:33.657Z,28.87
2018-04-12T06:39:00.527Z,34.03
2018-04-12T06:41:28.298Z,34.93
2018-04-12T06:43:55.206Z,34.60
2018-04-12T06:46:22.075Z,33.13
2018-04-12T06:48:49.056Z,31.87
2018-04-12T06:51:15.932Z,32.13
2018-04-12T06:53:42.801Z,39.50
2018-04-12T06:56:09.846Z,36.40
2018-04-12T06:58:36.732Z,36.30
2018-04-12T07:01:03.669Z,34.57
2018-04-12T07:03:30.844Z,34.50
2018-04-12T07:05:57.751Z,34.63
2018-04-12T07:08:25.367Z,28.83
2018-04-12T07:10:52.324Z,33.57
2018-04-12T07:13:19.189Z,34.50
2018-04-12T07:15:46.109Z,33.33
2018-04-12T07:18:13.383Z,32.23
2018-04-12T07:20:40.267Z,32.80
2018-04-12T07:23:07.896Z,33.20
2018-04-12T07:25:34.959Z,36.80
2018-04-12T07:28:02.577Z,35.83
2018-04-12T07:30:29.451Z,33.00
2018-04-12T07:32:56.524Z,33.83
2018-04-12T07:35:23.416Z,32.20
2018-04-12T07:37:50.328Z,34.33
2018-04-12T07:40:17.513Z,38.87
2018-04-12T07:42:44.394Z,37.83
2018-04-12T07:45:11.260Z,35.67
2018-04-12T07:47:38.957Z,39.13
2018-04-12T07:50:05.847Z,35.93
2018-04-12T07:52:32.721Z,33.90
2018-04-12T07:54:59.678Z,35.23
2018-04-12T07:57:26.640Z,34.17
2018-04-12T07:59:53.574Z,43.03
2018-04-12T08:02:20.792Z,36.20
2018-04-12T08:04:47.665Z,41.57
2018-04-12T08:07:14.631Z,33.90
2018-04-12T08:09:41.558Z,34.23
2018-04-12T08:12:08.477Z,34.67
2018-04-12T08:14:35.400Z,37.73
2018-04-12T08:17:02.561Z,36.60
2018-04-12T08:19:29.565Z,36.97
2018-04-12T08:21:56.457Z,35.63
2018-04-12T08:24:23.400Z,36.87
2018-04-12T08:26:50.283Z,37.37
2018-04-12T08:29:17.203Z,37.97
2018-04-12T08:31:44.281Z,34.40
2018-04-12T08:34:11.161Z,34.47
2018-04-12T08:36:38.041Z,35.37
2018-04-12T08:39:05.055Z,34.97
2018-04-12T08:41:31.967Z,38.03
2018-04-12T08:43:58.846Z,42.60
2018-04-12T08:46:25.949Z,38.40
2018-04-12T08:48:53.606Z,39.03
2018-04-12T08:51:21.220Z,33.37
2018-04-12T08:53:48.236Z,37.03
2018-04-12T08:56:15.163Z,35.93
2018-04-12T08:58:42.784Z,36.73
2018-04-12T09:01:09.752Z,36.67
2018-04-12T09:03:36.666Z,31.97
2018-04-12T09:06:03.649Z,36.83
2018-04-12T09:08:31.336Z,32.73
2018-04-12T09:10:58.941Z,36.23
2018-04-12T09:13:25.813Z,33.57
2018-04-12T09:15:52.758Z,32.53
2018-04-12T09:18:19.680Z,35.27
2018-04-12T09:20:47.382Z,34.23
2018-04-12T09:23:15.105Z,31.67
2018-04-12T09:25:41.982Z,36.33
2018-04-12T09:28:08.845Z,30.80
2018-04-12T09:30:36.002Z,34.77
2018-04-12T09:33:02.909Z,31.07
2018-04-12T09:35:29.819Z,35.10
2018-04-12T09:37:56.833Z,34.17
2018-04-12T09:40:24.457Z,31.17
2018-04-12T09:42:51.361Z,28.53
2018-04-12T09:45:18.413Z,31.93
2018-04-12T09:47:45.293Z,26.90
2018-04-12T09:50:12.194Z,27.93
2018-04-12T09:52:39.896Z,29.30
2018-04-12T09:55:06.815Z,30.53
2018-04-12T09:57:33.687Z,33.30
2018-04-12T10:00:00.846Z,33.17
2018-04-12T10:02:28.475Z,34.80
2018-04-12T10:04:55.458Z,31.20
2018-04-12T10:07:22.484Z,29.40
2018-04-12T10:09:58.716Z,27.73
2018-04-12T10:12:26.482Z,30.40
2018-04-12T10:14:56.081Z,29.10
2018-04-12T10:17:22.997Z,24.80
2018-04-12T10:19:50.001Z,27.10
2018-04-12T10:22:16.931Z,28.43
2018-04-12T10:24:44.544Z,30.23
2018-04-12T10:27:11.554Z,26.93
2018-04-12T10:29:38.457Z,28.50
2018-04-12T10:32:05.390Z,29.23
2018-04-12T10:34:32.296Z,28.20
2018-04-12T10:36:59.241Z,26.57
2018-04-12T10:39:26.193Z,30.20
2018-04-12T10:41:53.263Z,29.97
2018-04-12T10:44:20.193Z,26.03
2018-04-12T10:46:47.120Z,27.47
2018-04-12T10:49:14.194Z,25.73
2018-04-12T10:51:41.104Z,29.97
2018-04-12T10:54:08.761Z,26.80
2018-04-12T10:56:35.857Z,29.17
2018-04-12T10:59:02.793Z,30.53
2018-04-12T11:01:29.681Z,28.03
2018-04-12T11:03:56.743Z,27.90
2018-04-12T11:06:23.616Z,27.53
2018-04-12T11:08:51.236Z,27.73
2018-04-12T11:11:18.171Z,25.90
2018-04-12T11:13:45.088Z,30.03
2018-04-12T11:16:11.998Z,25.63
2018-04-12T11:18:39.054Z,30.17
2018-04-12T11:21:06.672Z,24.63
2018-04-12T11:23:33.552Z,30.90
2018-04-12T11:26:00.566Z,23.53
2018-04-12T11:28:27.454Z,25.50
2018-04-12T11:30:55.063Z,22.70
2018-04-12T11:33:22.156Z,24.00
2018-04-12T11:35:49.057Z,29.07
2018-04-12T11:38:15.924Z,25.63
2018-04-12T11:40:42.946Z,29.90
2018-04-12T11:43:09.838Z,26.20
2018-04-12T11:45:37.473Z,24.17
2018-04-12T11:48:04.485Z,22.00
2018-04-12T11:50:31.358Z,22.40
2018-04-12T11:52:58.299Z,22.53
2018-04-12T11:55:25.301Z,26.40
2018-04-12T11:57:52.165Z,25.53
2018-04-12T12:00:19.028Z,25.37
2018-04-12T12:02:46.074Z,32.57
2018-04-12T12:05:12.959Z,24.83
2018-04-12T12:07:39.865Z,27.67
2018-04-12T12:10:07.216Z,22.20
2018-04-12T12:12:34.171Z,27.13
2018-04-12T12:15:01.054Z,21.30
2018-04-12T12:17:28.011Z,23.73
2018-04-12T12:19:54.893Z,23.70
2018-04-12T12:22:21.784Z,21.27
2018-04-12T12:24:48.835Z,22.40
2018-04-12T12:27:15.704Z,23.93
2018-04-12T12:29:42.622Z,22.17
2018-04-12T12:32:09.643Z,22.67
2018-04-12T12:34:36.501Z,25.10
2018-04-12T12:37:03.368Z,22.67
2018-04-12T12:39:30.288Z,24.83
2018-04-12T12:41:57.159Z,25.97
2018-04-12T12:44:24.025Z,22.60
2018-04-12T12:46:50.984Z,22.60
2018-04-12T12:49:18.638Z,20.90
2018-04-12T12:51:46.239Z,25.70
2018-04-12T12:54:13.182Z,24.47
2018-04-12T12:56:40.049Z,20.87
2018-04-12T12:59:06.919Z,22.63
2018-04-12T13:01:34.008Z,24.07
2018-04-12T13:04:00.927Z,22.80
2018-04-12T13:06:28.528Z,23.23
2018-04-12T13:08:55.575Z,22.00
2018-04-12T13:11:22.447Z,23.67
2018-04-12T13:13:49.350Z,22.90
2018-04-12T13:16:16.472Z,24.87
2018-04-12T13:18:43.466Z,23.67
2018-04-12T13:21:10.336Z,24.23
2018-04-12T13:23:37.445Z,20.67
2018-04-12T13:26:05.075Z,24.33
2018-04-12T13:28:31.972Z,20.50
2018-04-12T13:30:59.039Z,25.47
2018-04-12T13:33:25.911Z,22.63
2018-04-12T13:35:52.853Z,21.03
2018-04-12T13:38:20.029Z,25.70
2018-04-12T13:40:47.636Z,20.47
2018-04-12T13:43:14.539Z,20.47
2018-04-12T13:45:42.274Z,18.97
2018-04-12T13:48:09.176Z,22.63
2018-04-12T13:50:36.053Z,20.37
2018-04-12T13:53:02.994Z,22.60
2018-04-12T13:55:29.861Z,23.97
2018-04-12T13:57:56.769Z,22.27
2018-04-12T14:00:23.760Z,20.47
2018-04-12T14:02:50.618Z,24.87
2018-04-12T14:05:18.245Z,22.73
2018-04-12T14:07:45.191Z,20.80
2018-04-12T14:10:12.073Z,22.47
2018-04-12T14:12:39.696Z,20.27
2018-04-12T14:15:06.714Z,26.87
2018-04-12T14:17:33.606Z,21.80
2018-04-12T14:20:00.517Z,20.17
2018-04-12T14:22:27.576Z,20.63
2018-04-12T14:24:54.446Z,22.67
2018-04-12T14:27:21.309Z,21.77
2018-04-12T14:29:48.289Z,21.80
2018-04-12T14:32:15.160Z,22.10
2018-04-12T14:34:42.054Z,20.47
2018-04-12T14:37:09.851Z,23.03
2018-04-12T14:39:36.723Z,20.57
2018-04-12T14:42:03.647Z,20.77
2018-04-12T14:44:30.673Z,24.27
2018-04-12T14:46:58.313Z,21.63
2018-04-12T14:49:25.217Z,19.37
2018-04-12T14:51:52.219Z,21.17
2018-04-12T14:54:19.864Z,20.50
2018-04-12T14:56:46.732Z,21.60
2018-04-12T14:59:14.589Z,19.93
2018-04-12T15:01:42.202Z,21.23
2018-04-12T15:04:09.098Z,18.47
2018-04-12T15:06:36.493Z,23.30
2018-04-12T15:09:03.533Z,18.93
2018-04-12T15:11:30.397Z,22.43
2018-04-12T15:13:57.359Z,18.20
2018-04-12T15:16:24.231Z,22.00
2018-04-12T15:18:51.162Z,18.90
2018-04-12T15:21:18.968Z,19.43
2018-04-12T15:23:45.883Z,20.43
2018-04-12T15:26:12.762Z,18.57
2018-04-12T15:28:39.875Z,20.60
2018-04-12T15:31:06.802Z,18.77
2018-04-12T15:33:33.678Z,23.47
2018-04-12T15:36:00.642Z,18.63
2018-04-12T15:38:28.293Z,19.17
2018-04-12T15:40:55.913Z,22.10
2018-04-12T15:43:22.937Z,21.03
2018-04-12T15:45:49.830Z,20.83
2018-04-12T15:48:16.731Z,21.50
2018-04-12T15:50:43.836Z,20.90
2018-04-12T15:53:10.851Z,20.20
2018-04-12T15:55:38.523Z,24.50
2018-04-12T15:58:06.282Z,21.50
2018-04-12T16:00:33.151Z,22.93
2018-04-12T16:03:00.020Z,20.33
2018-04-12T16:05:27.873Z,22.50
2018-04-12T16:07:54.758Z,20.43
2018-04-12T16:10:21.633Z,21.67
2018-04-12T16:12:48.654Z,23.43
2018-04-12T16:15:15.524Z,24.23
2018-04-12T16:17:42.433Z,23.40
2018-04-12T16:20:09.340Z,20.27
2018-04-12T16:22:36.200Z,20.43
2018-04-12T16:25:03.856Z,21.07
2018-04-12T16:27:30.865Z,20.80
2018-04-12T16:29:57.787Z,22.60
2018-04-12T16:32:24.686Z,21.00
2018-04-12T16:34:51.765Z,24.13
2018-04-12T16:37:18.628Z,23.23
2018-04-12T16:39:45.500Z,23.17
2018-04-12T16:42:12.619Z,23.60
2018-04-12T16:44:43.490Z,24.87
2018-04-12T16:47:10.399Z,23.47
2018-04-12T16:49:37.502Z,21.80
2018-04-12T16:52:04.429Z,28.70
2018-04-12T16:54:31.334Z,24.37
2018-04-12T16:56:58.382Z,22.53
2018-04-12T16:59:25.296Z,21.33
2018-04-12T17:01:52.225Z,21.57
2018-04-12T17:04:19.180Z,22.63
2018-04-12T17:06:46.263Z,20.10
2018-04-12T17:09:13.190Z,24.60
2018-04-12T17:11:40.354Z,24.63
2018-04-12T17:14:08.038Z,23.83
2018-04-12T17:16:34.990Z,21.70
2018-04-12T17:19:02.082Z,23.27
2018-04-12T17:21:28.998Z,26.00
2018-04-12T17:23:55.878Z,22.40
2018-04-12T17:26:22.948Z,23.03
2018-04-12T17:28:49.890Z,20.00
2018-04-12T17:31:16.771Z,23.03
2018-04-12T17:33:43.774Z,20.23
2018-04-12T17:36:10.650Z,20.80
2018-04-12T17:38:38.293Z,20.67
2018-04-12T17:41:05.435Z,22.40
2018-04-12T17:43:32.395Z,20.93
2018-04-12T17:46:00.020Z,21.57
2018-04-12T17:48:27.118Z,22.53
2018-04-12T17:50:54.782Z,21.87
2018-04-12T17:53:22.787Z,21.17
2018-04-12T17:55:49.697Z,22.17
2018-04-12T17:58:16.667Z,23.43
2018-04-12T18:00:43.606Z,21.17
2018-04-12T18:03:11.431Z,22.17
2018-04-12T18:05:38.384Z,22.67
2018-04-12T18:08:05.906Z,22.37
2018-04-12T18:10:33.103Z,24.27
2018-04-12T18:13:00.001Z,25.73
2018-04-12T18:15:26.887Z,24.10
2018-04-12T18:17:53.939Z,23.37
2018-04-12T18:20:20.867Z,21.80
2018-04-12T18:22:47.729Z,24.03
2018-04-12T18:25:14.785Z,20.90
2018-04-12T18:27:41.650Z,24.13
2018-04-12T18:30:09.272Z,26.83
2018-04-12T18:32:36.229Z,22.87
2018-04-12T18:35:03.158Z,24.53
2018-04-12T18:37:30.038Z,25.97
2018-04-12T18:39:57.892Z,22.20
2018-04-12T18:42:24.752Z,25.37
2018-04-12T18:44:54.162Z,23.70
2018-04-12T18:47:21.296Z,24.30
2018-04-12T18:49:48.169Z,22.20
2018-04-12T18:52:15.120Z,28.47
2018-04-12T18:54:42.074Z,25.10
2018-04-12T18:57:08.976Z,27.47
2018-04-12T18:59:35.842Z,24.73
2018-04-12T19:02:03.802Z,25.27
2018-04-12T19:04:31.412Z,25.50
2018-04-12T19:06:58.282Z,27.27
2018-04-12T19:09:25.514Z,28.53
2018-04-12T19:11:52.416Z,27.20
2018-04-12T19:14:20.023Z,28.80
2018-04-12T19:16:47.155Z,27.47
2018-04-12T19:19:14.140Z,26.93
2018-04-12T19:21:41.008Z,29.93
2018-04-12T19:24:08.033Z,27.80
2018-04-12T19:26:34.926Z,29.93
2018-04-12T19:29:01.844Z,30.67
2018-04-12T19:31:28.811Z,30.27
2018-04-12T19:33:56.480Z,27.37
2018-04-12T19:36:24.177Z,28.73
2018-04-12T19:38:51.197Z,33.40
2018-04-12T19:41:18.060Z,28.30
2018-04-12T19:43:44.932Z,28.83
2018-04-12T19:46:11.950Z,27.77
2018-04-12T19:48:38.841Z,29.83
2018-04-12T19:51:05.712Z,29.50
2018-04-12T19:53:33.551Z,25.80
2018-04-12T19:56:00.428Z,26.47
2018-04-12T19:58:28.040Z,32.50
2018-04-12T20:00:55.107Z,30.10
2018-04-12T20:03:22.035Z,28.40
2018-04-12T20:05:48.938Z,27.80
2018-04-12T20:08:15.888Z,29.77
2018-04-12T20:10:42.900Z,28.20
2018-04-12T20:13:09.798Z,31.43
2018-04-12T20:15:36.942Z,30.20
2018-04-12T20:18:03.838Z,30.83
2018-04-12T20:20:30.753Z,32.30
2018-04-12T20:22:57.918Z,31.67
2018-04-12T20:25:24.793Z,32.57
2018-04-12T20:27:51.661Z,28.80
2018-04-12T20:30:19.513Z,33.47
2018-04-12T20:32:47.148Z,28.63
2018-04-12T20:35:14.014Z,31.37
2018-04-12T20:37:41.010Z,34.33
2018-04-12T20:40:07.893Z,29.90
2018-04-12T20:42:34.760Z,30.07
2018-04-12T20:45:02.625Z,29.87
2018-04-12T20:47:30.275Z,31.20
2018-04-12T20:49:57.152Z,28.00
2018-04-12T20:52:24.157Z,31.40
2018-04-12T20:54:51.020Z,30.93
2018-04-12T20:57:18.649Z,25.77
2018-04-12T20:59:45.705Z,26.03
2018-04-12T21:02:12.597Z,28.73
2018-04-12T21:04:39.482Z,32.27
2018-04-12T21:07:06.540Z,27.97
2018-04-12T21:09:33.403Z,28.80
2018-04-12T21:12:00.327Z,30.40
2018-04-12T21:14:27.347Z,29.90
2018-04-12T21:16:54.246Z,32.17
2018-04-12T21:19:21.182Z,27.07
2018-04-12T21:21:48.089Z,33.57
2018-04-12T21:24:15.697Z,28.30
2018-04-12T21:26:42.615Z,29.07
2018-04-12T21:29:09.532Z,27.33
2018-04-12T21:31:36.404Z,30.17
2018-04-12T21:34:03.298Z,32.03
2018-04-12T21:36:30.970Z,27.33
2018-04-12T21:38:58.974Z,32.83
2018-04-12T21:41:25.844Z,32.70
2018-04-12T21:43:52.796Z,29.83
2018-04-12T21:46:19.682Z,30.37
2018-04-12T21:48:47.317Z,29.93
2018-04-12T21:51:14.411Z,29.30
2018-04-12T21:53:41.372Z,28.07
2018-04-12T21:56:08.268Z,29.37
2018-04-12T21:58:35.167Z,25.50
2018-04-12T22:01:02.116Z,27.43
2018-04-12T22:03:29.026Z,26.23
2018-04-12T22:05:56.673Z,27.63
2018-04-12T22:08:23.528Z,25.43
2018-04-12T22:10:51.167Z,28.80
2018-04-12T22:13:18.123Z,28.00
2018-04-12T22:15:45.785Z,27.10
2018-04-12T22:18:12.649Z,28.87
2018-04-12T22:20:40.480Z,28.93
2018-04-12T22:23:07.354Z,29.00
2018-04-12T22:25:35.026Z,26.30
2018-04-12T22:28:01.935Z,26.00
2018-04-12T22:30:28.812Z,24.73
2018-04-12T22:32:56.445Z,25.03
2018-04-12T22:35:23.521Z,33.10
2018-04-12T22:37:51.181Z,31.37
2018-04-12T22:40:18.884Z,28.03
2018-04-12T22:42:45.966Z,26.93
2018-04-12T22:45:12.861Z,24.67
2018-04-12T22:47:39.747Z,27.87
2018-04-12T22:50:06.837Z,27.47
2018-04-12T22:52:33.754Z,27.40
2018-04-12T22:55:00.638Z,24.37
2018-04-12T22:57:27.664Z,27.13
2018-04-12T22:59:55.292Z,28.63
2018-04-12T23:02:22.233Z,28.53
2018-04-12T23:04:49.235Z,29.57
2018-04-12T23:07:16.855Z,25.43
2018-04-12T23:09:43.720Z,25.50
2018-04-12T23:12:10.777Z,30.97
2018-04-12T23:14:37.748Z,30.83
2018-04-12T23:17:05.398Z,28.40
2018-04-12T23:19:32.513Z,28.00
2018-04-12T23:21:59.385Z,27.93
2018-04-12T23:24:26.261Z,28.37
2018-04-12T23:26:53.285Z,26.37
2018-04-12T23:29:20.884Z,29.20
2018-04-12T23:31:47.777Z,29.20
2018-04-12T23:34:14.789Z,30.87
2018-04-12T23:36:41.674Z,31.07
2018-04-12T23:39:08.537Z,27.27
2018-04-12T23:41:36.339Z,26.83
2018-04-12T23:44:03.267Z,30.67
2018-04-12T23:46:30.143Z,28.73
2018-04-12T23:48:57.232Z,30.07
2018-04-12T23:51:24.092Z,32.20
2018-04-12T23:53:50.972Z,28.07
2018-04-12T23:56:17.985Z,27.60
2018-04-12T23:58:45.601Z,35.30
